Time;durP1;ratioP1;P1;durP2;ratioP2;P2;SDS_P1;SDS_P2;PMS_P1;PMS_P2;Temp;Humidity;BMP_temperature;BMP_pressure;BME280_temperature;BME280_humidity;BME280_pressure;Samples;Min_cycle;Max_cycle;Signal;HPM_P1;HPM_P2
2020/12/05 00:00:22;;;;;;;33.53;19.17;;;;;;;;;;5012638;28;20425;-61
2020/12/05 00:02:49;;;;;;;33.38;19.20;;;;;;;;;;5013824;28;20473;-62
2020/12/05 00:05:15;;;;;;;33.53;18.48;;;;;;;;;;5014051;28;20457;-63
2020/12/05 00:07:42;;;;;;;34.83;19.45;;;;;;;;;;5014075;28;20069;-65
2020/12/05 00:10:08;;;;;;;34.08;19.38;;;;;;;;;;5012702;28;20024;-63
2020/12/05 00:12:35;;;;;;;32.15;19.02;;;;;;;;;;5010425;28;20065;-62
2020/12/05 00:15:01;;;;;;;34.95;19.63;;;;;;;;;;5013090;28;20080;-62
2020/12/05 00:17:27;;;;;;;32.05;19.08;;;;;;;;;;5010353;28;20036;-62
2020/12/05 00:19:53;;;;;;;31.20;18.15;;;;;;;;;;5013699;28;20013;-63
2020/12/05 00:22:20;;;;;;;31.17;17.65;;;;;;;;;;5009396;28;20531;-62
2020/12/05 00:24:46;;;;;;;32.80;18.52;;;;;;;;;;5013789;28;20026;-63
2020/12/05 00:27:12;;;;;;;30.00;17.55;;;;;;;;;;5013638;28;20040;-64
2020/12/05 00:29:38;;;;;;;32.70;18.17;;;;;;;;;;5013403;28;20133;-64
2020/12/05 00:32:06;;;;;;;34.47;19.02;;;;;;;;;;5013392;28;20026;-65
2020/12/05 00:34:32;;;;;;;32.28;18.95;;;;;;;;;;5013795;28;20069;-65
2020/12/05 00:36:58;;;;;;;29.15;16.90;;;;;;;;;;5013786;28;20018;-66
2020/12/05 00:39:24;;;;;;;31.08;18.27;;;;;;;;;;5013599;28;20021;-62
2020/12/05 00:41:54;;;;;;;33.47;18.98;;;;;;;;;;5013708;28;20115;-63
2020/12/05 00:44:20;;;;;;;30.80;18.63;;;;;;;;;;5013394;28;20025;-64
2020/12/05 00:46:46;;;;;;;32.33;18.65;;;;;;;;;;5012788;28;20038;-64
2020/12/05 00:49:12;;;;;;;29.95;18.17;;;;;;;;;;5013297;28;20109;-63
2020/12/05 00:51:38;;;;;;;31.42;17.75;;;;;;;;;;5013490;28;20313;-65
2020/12/05 00:54:04;;;;;;;33.72;19.65;;;;;;;;;;5013248;28;20115;-65
2020/12/05 00:56:30;;;;;;;32.88;18.23;;;;;;;;;;5013482;28;20029;-65
2020/12/05 00:58:56;;;;;;;30.70;17.88;;;;;;;;;;5012859;28;20413;-64
2020/12/05 01:01:22;;;;;;;31.92;18.48;;;;;;;;;;5013198;28;20034;-63
2020/12/05 01:03:48;;;;;;;29.45;18.08;;;;;;;;;;5012941;28;20042;-64
2020/12/05 01:06:15;;;;;;;34.28;18.98;;;;;;;;;;5012975;28;20358;-62
2020/12/05 01:08:41;;;;;;;33.42;18.73;;;;;;;;;;5012833;28;20046;-64
2020/12/05 01:11:14;;;;;;;31.13;18.42;;;;;;;;;;5007875;28;20744;-64
2020/12/05 01:13:40;;;;;;;31.20;18.27;;;;;;;;;;5012759;28;20031;-64
2020/12/05 01:16:09;;;;;;;29.23;17.95;;;;;;;;;;5012886;28;20489;-63
2020/12/05 01:18:35;;;;;;;32.20;18.55;;;;;;;;;;5012829;28;20125;-63
2020/12/05 01:21:01;;;;;;;33.17;18.92;;;;;;;;;;5012768;28;20022;-63
2020/12/05 01:23:27;;;;;;;30.88;18.70;;;;;;;;;;5012485;28;20485;-62
2020/12/05 01:25:53;;;;;;;33.90;19.17;;;;;;;;;;5012656;28;20030;-63
2020/12/05 01:28:19;;;;;;;32.58;18.35;;;;;;;;;;5012431;28;20042;-63
2020/12/05 01:30:45;;;;;;;31.33;18.25;;;;;;;;;;5012590;28;20030;-64
2020/12/05 01:33:11;;;;;;;32.53;18.23;;;;;;;;;;5010914;28;20099;-62
2020/12/05 01:35:37;;;;;;;29.80;18.05;;;;;;;;;;5011851;28;20025;-62
2020/12/05 01:38:03;;;;;;;34.03;18.52;;;;;;;;;;5011552;28;20514;-62
2020/12/05 01:40:29;;;;;;;32.15;18.55;;;;;;;;;;5012239;28;20386;-63
2020/12/05 01:42:55;;;;;;;34.03;19.75;;;;;;;;;;5012399;28;20474;-63
2020/12/05 01:45:22;;;;;;;32.83;19.00;;;;;;;;;;5010921;28;20057;-63
2020/12/05 01:47:48;;;;;;;32.13;18.92;;;;;;;;;;5011669;28;20044;-64
2020/12/05 01:50:14;;;;;;;36.08;20.00;;;;;;;;;;5011688;28;20026;-62
2020/12/05 01:52:40;;;;;;;32.38;19.50;;;;;;;;;;5011964;28;20029;-63
2020/12/05 01:55:06;;;;;;;31.30;18.42;;;;;;;;;;5011954;28;20049;-63
2020/12/05 01:57:32;;;;;;;32.40;17.90;;;;;;;;;;5009194;28;20498;-63
2020/12/05 01:59:58;;;;;;;30.45;17.98;;;;;;;;;;5005672;28;20471;-62
2020/12/05 02:02:24;;;;;;;29.98;17.83;;;;;;;;;;5011416;28;20109;-62
2020/12/05 02:05:11;;;;;;;30.27;17.45;;;;;;;;;;5011691;28;20138;-61
2020/12/05 02:07:52;;;;;;;31.25;17.27;;;;;;;;;;4989710;28;20410;-61
2020/12/05 02:10:22;;;;;;;30.07;17.40;;;;;;;;;;4989932;28;20043;-61
2020/12/05 02:12:51;;;;;;;30.25;17.48;;;;;;;;;;4990385;28;20113;-62
2020/12/05 02:15:23;;;;;;;29.33;17.55;;;;;;;;;;4988099;28;20034;-62
2020/12/05 02:17:58;;;;;;;28.98;17.67;;;;;;;;;;4989986;28;20031;-62
2020/12/05 02:20:25;;;;;;;31.63;17.58;;;;;;;;;;4990038;28;20508;-62
2020/12/05 02:22:52;;;;;;;30.95;17.75;;;;;;;;;;4989557;28;20105;-61
2020/12/05 02:25:18;;;;;;;30.40;17.17;;;;;;;;;;4993088;28;20401;-60
2020/12/05 02:27:44;;;;;;;31.90;17.70;;;;;;;;;;4993366;28;20045;-61
2020/12/05 02:30:11;;;;;;;29.42;16.65;;;;;;;;;;4993281;28;20573;-61
2020/12/05 02:32:37;;;;;;;32.17;18.30;;;;;;;;;;4993283;28;20121;-61
2020/12/05 02:35:04;;;;;;;30.35;17.10;;;;;;;;;;4992837;28;20034;-59
2020/12/05 02:37:32;;;;;;;29.35;17.38;;;;;;;;;;4993462;28;20038;-62
2020/12/05 02:40:00;;;;;;;30.27;17.15;;;;;;;;;;4993423;28;20517;-60
2020/12/05 02:42:26;;;;;;;29.48;17.00;;;;;;;;;;4993763;28;20038;-60
2020/12/05 02:44:52;;;;;;;29.20;17.48;;;;;;;;;;5006056;28;20034;-60
2020/12/05 02:47:19;;;;;;;29.92;17.17;;;;;;;;;;5014754;28;20541;-61
2020/12/05 02:49:46;;;;;;;27.95;16.48;;;;;;;;;;5014421;28;20033;-61
2020/12/05 02:52:12;;;;;;;29.95;17.45;;;;;;;;;;5015672;28;20018;-62
2020/12/05 02:54:38;;;;;;;30.17;17.77;;;;;;;;;;5015446;28;20054;-61
2020/12/05 02:57:05;;;;;;;31.02;17.85;;;;;;;;;;5015488;28;20477;-61
2020/12/05 02:59:31;;;;;;;31.13;18.08;;;;;;;;;;5015312;28;20096;-61
2020/12/05 03:01:57;;;;;;;29.85;17.58;;;;;;;;;;5015220;28;20026;-61
2020/12/05 03:04:24;;;;;;;31.30;18.05;;;;;;;;;;5015085;28;20049;-61
2020/12/05 03:06:50;;;;;;;30.50;17.50;;;;;;;;;;5015128;28;20041;-62
2020/12/05 03:09:16;;;;;;;40.08;20.95;;;;;;;;;;5015379;28;20022;-62
2020/12/05 03:11:42;;;;;;;66.88;28.45;;;;;;;;;;5014136;28;20030;-60
2020/12/05 03:14:08;;;;;;;47.80;24.25;;;;;;;;;;5004644;28;20033;-61
2020/12/05 03:16:35;;;;;;;37.28;21.10;;;;;;;;;;5014998;28;20030;-61
2020/12/05 03:19:01;;;;;;;35.53;19.35;;;;;;;;;;5015270;28;20022;-61
2020/12/05 03:21:27;;;;;;;31.70;17.85;;;;;;;;;;5015195;28;20413;-59
2020/12/05 03:23:54;;;;;;;32.47;18.00;;;;;;;;;;5014799;28;20390;-61
2020/12/05 03:26:20;;;;;;;27.45;16.98;;;;;;;;;;5015039;28;20022;-60
2020/12/05 03:28:46;;;;;;;30.48;18.27;;;;;;;;;;5014932;28;20029;-61
2020/12/05 03:31:29;;;;;;;31.88;18.20;;;;;;;;;;5014705;28;20017;-60
2020/12/05 03:33:55;;;;;;;32.08;18.92;;;;;;;;;;5014641;28;20473;-60
2020/12/05 03:36:21;;;;;;;31.15;18.38;;;;;;;;;;5014119;28;20205;-61
2020/12/05 03:38:47;;;;;;;31.70;17.63;;;;;;;;;;5014650;28;20370;-61
2020/12/05 03:41:14;;;;;;;29.88;17.60;;;;;;;;;;5014937;28;20171;-60
2020/12/05 03:43:41;;;;;;;28.20;17.00;;;;;;;;;;5014799;28;20478;-61
2020/12/05 03:46:07;;;;;;;31.00;17.23;;;;;;;;;;5014302;28;20022;-60
2020/12/05 03:48:33;;;;;;;30.33;17.13;;;;;;;;;;5013973;28;20068;-61
2020/12/05 03:50:59;;;;;;;27.70;16.88;;;;;;;;;;5014533;28;20084;-61
2020/12/05 03:53:25;;;;;;;28.20;16.73;;;;;;;;;;5007915;28;20493;-62
2020/12/05 03:55:52;;;;;;;29.00;16.25;;;;;;;;;;5014400;28;20033;-61
2020/12/05 03:58:19;;;;;;;26.48;16.00;;;;;;;;;;5014505;28;20076;-59
2020/12/05 04:00:45;;;;;;;27.13;15.45;;;;;;;;;;5014316;28;20026;-60
2020/12/05 04:03:11;;;;;;;26.92;15.82;;;;;;;;;;5014042;28;20044;-60
2020/12/05 04:05:37;;;;;;;28.67;15.50;;;;;;;;;;5014088;28;20053;-60
2020/12/05 04:08:03;;;;;;;27.08;14.52;;;;;;;;;;5013959;28;20397;-61
2020/12/05 04:10:29;;;;;;;28.45;15.95;;;;;;;;;;5014317;28;20132;-61
2020/12/05 04:12:55;;;;;;;27.73;15.63;;;;;;;;;;5013502;28;20058;-62
2020/12/05 04:15:21;;;;;;;27.27;15.57;;;;;;;;;;5014114;28;20021;-60
2020/12/05 04:17:47;;;;;;;26.13;14.80;;;;;;;;;;5014098;28;20779;-61
2020/12/05 04:20:13;;;;;;;23.83;13.93;;;;;;;;;;5013864;28;20026;-64
2020/12/05 04:22:39;;;;;;;27.23;14.88;;;;;;;;;;5013732;28;20034;-62
2020/12/05 04:25:05;;;;;;;26.92;15.13;;;;;;;;;;5013823;28;20018;-61
2020/12/05 04:27:31;;;;;;;28.52;17.27;;;;;;;;;;5013162;28;20120;-62
2020/12/05 04:29:57;;;;;;;25.67;15.38;;;;;;;;;;5013692;28;20164;-62
2020/12/05 04:32:23;;;;;;;24.40;14.63;;;;;;;;;;5013501;28;20146;-61
2020/12/05 04:34:50;;;;;;;26.98;16.02;;;;;;;;;;5013746;28;20064;-60
2020/12/05 04:37:16;;;;;;;26.58;16.20;;;;;;;;;;5013400;28;20025;-60
2020/12/05 04:39:42;;;;;;;31.65;16.60;;;;;;;;;;5013445;28;20044;-61
2020/12/05 04:42:08;;;;;;;30.33;16.67;;;;;;;;;;5013361;28;20021;-60
2020/12/05 04:44:34;;;;;;;25.85;15.27;;;;;;;;;;5013445;28;20080;-60
2020/12/05 04:47:00;;;;;;;28.10;16.48;;;;;;;;;;5012413;28;20036;-60
2020/12/05 04:49:28;;;;;;;27.15;15.35;;;;;;;;;;5013314;28;20121;-60
2020/12/05 04:51:58;;;;;;;25.27;14.52;;;;;;;;;;5012220;28;20042;-60
2020/12/05 04:54:27;;;;;;;27.02;15.60;;;;;;;;;;5013140;28;20045;-60
2020/12/05 04:56:56;;;;;;;27.77;15.23;;;;;;;;;;5013099;28;20414;-60
2020/12/05 04:59:22;;;;;;;26.05;15.25;;;;;;;;;;5012857;28;20029;-60
2020/12/05 05:01:51;;;;;;;28.73;16.42;;;;;;;;;;5012654;28;20054;-60
2020/12/05 05:04:17;;;;;;;30.60;16.20;;;;;;;;;;5012649;28;20144;-61
2020/12/05 05:06:43;;;;;;;27.48;15.88;;;;;;;;;;5012830;28;20029;-61
2020/12/05 05:09:11;;;;;;;27.23;16.38;;;;;;;;;;5012099;28;20485;-62
2020/12/05 05:11:40;;;;;;;26.70;16.17;;;;;;;;;;5013003;28;20022;-59
2020/12/05 05:14:15;;;;;;;29.20;16.60;;;;;;;;;;5012882;28;20471;-60
2020/12/05 05:16:42;;;;;;;34.80;20.33;;;;;;;;;;5012473;28;20106;-60
2020/12/05 05:19:21;;;;;;;33.13;18.13;;;;;;;;;;5012640;28;20037;-61
2020/12/05 05:21:48;;;;;;;30.15;17.40;;;;;;;;;;5012498;28;20080;-61
2020/12/05 05:24:15;;;;;;;34.33;18.23;;;;;;;;;;5012705;28;20113;-60
2020/12/05 05:26:42;;;;;;;34.53;19.27;;;;;;;;;;5011598;28;20053;-61
2020/12/05 05:29:28;;;;;;;34.63;18.63;;;;;;;;;;5012034;28;20490;-61
2020/12/05 05:32:09;;;;;;;32.67;17.33;;;;;;;;;;5012215;28;20030;-61
2020/12/05 05:34:35;;;;;;;36.67;18.40;;;;;;;;;;5012315;28;20034;-61
2020/12/05 05:37:01;;;;;;;37.33;19.05;;;;;;;;;;5012431;28;20026;-61
2020/12/05 05:39:29;;;;;;;29.15;17.77;;;;;;;;;;5012608;28;20029;-61
2020/12/05 05:41:55;;;;;;;37.28;20.55;;;;;;;;;;5012474;28;20104;-61
2020/12/05 05:44:25;;;;;;;47.35;24.35;;;;;;;;;;5012418;28;20034;-61
2020/12/05 05:46:51;;;;;;;36.33;20.45;;;;;;;;;;5012097;28;20076;-59
2020/12/05 05:49:29;;;;;;;30.02;17.30;;;;;;;;;;5011775;28;20044;-61
2020/12/05 05:51:55;;;;;;;45.00;22.65;;;;;;;;;;5012197;28;20026;-61
2020/12/05 05:54:25;;;;;;;36.92;18.35;;;;;;;;;;5000301;28;20110;-61
2020/12/05 05:57:06;;;;;;;33.15;17.45;;;;;;;;;;5012277;28;20041;-60
2020/12/05 05:59:36;;;;;;;33.60;18.85;;;;;;;;;;5016230;28;20022;-60
2020/12/05 06:02:04;;;;;;;35.65;19.42;;;;;;;;;;5016407;28;20028;-60
2020/12/05 06:04:36;;;;;;;29.00;17.00;;;;;;;;;;5016135;28;20061;-60
2020/12/05 06:07:03;;;;;;;31.67;17.55;;;;;;;;;;5015721;28;20485;-60
2020/12/05 06:09:33;;;;;;;26.75;16.05;;;;;;;;;;5016325;28;20026;-60
2020/12/05 06:11:59;;;;;;;26.42;15.30;;;;;;;;;;5012469;28;20052;-60
2020/12/05 06:14:26;;;;;;;27.08;15.85;;;;;;;;;;5016334;28;20132;-60
2020/12/05 06:16:53;;;;;;;27.58;16.10;;;;;;;;;;5016273;28;20029;-60
2020/12/05 06:19:20;;;;;;;26.38;15.82;;;;;;;;;;5016375;28;20073;-60
2020/12/05 06:21:49;;;;;;;26.92;15.18;;;;;;;;;;5016175;28;20400;-60
2020/12/05 06:24:16;;;;;;;28.52;15.98;;;;;;;;;;5016236;28;20022;-60
2020/12/05 06:26:43;;;;;;;29.27;16.70;;;;;;;;;;5015182;28;20025;-60
2020/12/05 06:29:10;;;;;;;30.95;16.38;;;;;;;;;;5016324;28;20397;-61
2020/12/05 06:31:43;;;;;;;26.60;15.35;;;;;;;;;;5014293;28;20404;-60
2020/12/05 06:34:10;;;;;;;25.95;15.18;;;;;;;;;;5012955;28;20027;-60
2020/12/05 06:36:37;;;;;;;24.60;14.77;;;;;;;;;;5005116;28;20026;-62
2020/12/05 06:39:06;;;;;;;28.20;17.55;;;;;;;;;;5012564;28;20071;-61
2020/12/05 06:41:36;;;;;;;27.75;17.42;;;;;;;;;;5013441;28;20071;-62
2020/12/05 06:44:08;;;;;;;28.13;17.17;;;;;;;;;;5015642;28;20490;-62
2020/12/05 06:46:45;;;;;;;30.27;18.92;;;;;;;;;;5015624;28;20038;-62
2020/12/05 06:49:11;;;;;;;76.22;36.13;;;;;;;;;;5014202;28;20034;-60
2020/12/05 06:51:37;;;;;;;59.95;31.33;;;;;;;;;;5015541;28;20018;-63
2020/12/05 06:54:03;;;;;;;62.40;36.58;;;;;;;;;;5015521;28;20050;-64
2020/12/05 06:56:29;;;;;;;52.30;34.42;;;;;;;;;;5015627;28;20441;-59
2020/12/05 06:58:56;;;;;;;38.92;23.65;;;;;;;;;;5015496;28;20044;-59
2020/12/05 07:01:29;;;;;;;34.80;21.95;;;;;;;;;;5014883;28;20033;-58
2020/12/05 07:03:55;;;;;;;26.95;16.45;;;;;;;;;;5014592;28;20038;-58
2020/12/05 07:06:25;;;;;;;210.35;143.60;;;;;;;;;;5013501;28;20034;-62
2020/12/05 07:08:51;;;;;;;25.05;15.57;;;;;;;;;;5013928;28;20049;-62
2020/12/05 07:11:18;;;;;;;24.98;16.80;;;;;;;;;;5013942;28;20022;-64
2020/12/05 07:13:51;;;;;;;27.20;16.95;;;;;;;;;;5014877;28;20026;-62
2020/12/05 07:16:24;;;;;;;27.23;17.05;;;;;;;;;;5014665;28;20034;-61
2020/12/05 07:18:54;;;;;;;25.45;15.45;;;;;;;;;;5014529;28;20025;-63
2020/12/05 07:21:21;;;;;;;21.05;14.13;;;;;;;;;;5014627;28;20022;-60
2020/12/05 07:23:47;;;;;;;25.20;15.10;;;;;;;;;;5014911;28;20026;-60
2020/12/05 07:26:14;;;;;;;24.40;15.23;;;;;;;;;;5014629;28;20022;-60
2020/12/05 07:28:44;;;;;;;27.55;15.98;;;;;;;;;;5014467;28;20030;-61
2020/12/05 07:31:10;;;;;;;25.98;15.15;;;;;;;;;;5012531;28;20026;-61
2020/12/05 07:33:37;;;;;;;30.85;19.27;;;;;;;;;;5014396;28;20038;-61
2020/12/05 07:36:04;;;;;;;101.70;44.83;;;;;;;;;;5014721;28;20030;-61
2020/12/05 07:38:32;;;;;;;84.25;37.40;;;;;;;;;;5014716;28;20033;-60
2020/12/05 07:40:58;;;;;;;64.50;29.00;;;;;;;;;;5014980;28;20018;-61
2020/12/05 07:43:24;;;;;;;104.20;49.78;;;;;;;;;;5014579;28;20038;-62
2020/12/05 07:45:51;;;;;;;46.63;25.73;;;;;;;;;;5014341;28;20014;-63
2020/12/05 07:48:20;;;;;;;27.23;18.30;;;;;;;;;;5014155;28;20128;-60
2020/12/05 07:50:46;;;;;;;28.75;18.40;;;;;;;;;;5012918;28;20084;-61
2020/12/05 07:53:26;;;;;;;24.00;15.85;;;;;;;;;;5014127;28;20484;-61
2020/12/05 07:55:52;;;;;;;23.73;14.40;;;;;;;;;;5013640;28;20018;-62
2020/12/05 07:58:18;;;;;;;60.75;35.72;;;;;;;;;;5013669;28;20033;-62
2020/12/05 08:00:44;;;;;;;28.88;18.55;;;;;;;;;;5014102;28;20474;-62
2020/12/05 08:03:22;;;;;;;26.70;17.70;;;;;;;;;;5013759;28;20117;-63
2020/12/05 08:05:52;;;;;;;24.95;16.35;;;;;;;;;;5013803;28;20061;-62
2020/12/05 08:08:18;;;;;;;21.42;14.30;;;;;;;;;;5013887;28;20083;-62
2020/12/05 08:10:44;;;;;;;31.65;20.73;;;;;;;;;;5013928;28;20030;-62
2020/12/05 08:13:19;;;;;;;27.08;18.92;;;;;;;;;;5013802;28;20022;-62
2020/12/05 08:15:47;;;;;;;20.75;14.02;;;;;;;;;;5013815;28;20413;-61
2020/12/05 08:18:14;;;;;;;27.60;17.38;;;;;;;;;;5013769;28;20041;-62
2020/12/05 08:20:46;;;;;;;17.50;12.27;;;;;;;;;;5012854;28;20021;-62
2020/12/05 08:23:31;;;;;;;17.27;10.90;;;;;;;;;;5012797;28;20026;-61
2020/12/05 08:25:59;;;;;;;16.60;10.75;;;;;;;;;;5012888;28;20038;-62
2020/12/05 08:28:25;;;;;;;16.80;10.45;;;;;;;;;;5010574;28;20402;-61
2020/12/05 08:30:53;;;;;;;16.58;11.75;;;;;;;;;;5012047;28;20025;-62
2020/12/05 08:33:19;;;;;;;16.55;10.85;;;;;;;;;;5011633;28;20026;-61
2020/12/05 08:35:45;;;;;;;18.00;12.50;;;;;;;;;;5011432;28;20032;-62
2020/12/05 08:38:14;;;;;;;25.80;16.45;;;;;;;;;;5012899;28;20022;-62
2020/12/05 08:40:41;;;;;;;23.35;15.32;;;;;;;;;;5010849;28;20033;-63
2020/12/05 08:43:07;;;;;;;22.15;13.48;;;;;;;;;;5012165;28;20056;-61
2020/12/05 08:45:38;;;;;;;39.78;21.60;;;;;;;;;;5009110;28;20382;-60
2020/12/05 08:48:14;;;;;;;24.40;15.98;;;;;;;;;;5013038;28;20041;-66
2020/12/05 08:50:40;;;;;;;23.02;15.75;;;;;;;;;;5007719;28;20026;-65
2020/12/05 08:53:06;;;;;;;21.65;14.10;;;;;;;;;;5010892;28;20030;-65
2020/12/05 08:55:32;;;;;;;40.17;23.85;;;;;;;;;;5013147;28;20026;-63
2020/12/05 08:57:58;;;;;;;35.13;18.40;;;;;;;;;;5012898;28;20041;-64
2020/12/05 09:00:25;;;;;;;21.83;14.52;;;;;;;;;;5005278;28;20026;-62
2020/12/05 09:02:52;;;;;;;18.70;11.93;;;;;;;;;;5005025;28;20433;-61
2020/12/05 09:05:18;;;;;;;20.95;12.30;;;;;;;;;;5012890;28;20049;-65
2020/12/05 09:07:54;;;;;;;21.88;12.80;;;;;;;;;;5011861;28;20097;-66
2020/12/05 09:10:20;;;;;;;17.20;11.32;;;;;;;;;;5004407;28;20050;-60
2020/12/05 09:12:47;;;;;;;17.30;12.60;;;;;;;;;;5009822;28;20064;-63
2020/12/05 09:15:13;;;;;;;19.08;12.63;;;;;;;;;;5006690;28;20458;-63
2020/12/05 09:17:39;;;;;;;18.30;12.85;;;;;;;;;;5006672;28;20038;-61
2020/12/05 09:20:11;;;;;;;19.52;13.10;;;;;;;;;;5005420;28;20466;-61
2020/12/05 09:22:37;;;;;;;;;;;;;;;;;;5005266;28;20030;-62
2020/12/05 09:25:04;;;;;;;17.55;11.98;;;;;;;;;;5012386;28;19951;-61
2020/12/05 09:27:42;;;;;;;18.42;12.90;;;;;;;;;;5009090;28;20125;-61
2020/12/05 09:30:13;;;;;;;18.15;12.63;;;;;;;;;;5012098;28;20056;-60
2020/12/05 09:32:46;;;;;;;17.85;12.63;;;;;;;;;;5011506;28;20022;-60
2020/12/05 09:35:13;;;;;;;18.88;12.15;;;;;;;;;;5009017;28;20033;-65
2020/12/05 09:37:40;;;;;;;18.52;13.15;;;;;;;;;;5011963;28;20441;-63
2020/12/05 09:40:06;;;;;;;17.90;12.77;;;;;;;;;;5013617;28;20022;-60
2020/12/05 09:42:32;;;;;;;20.40;12.38;;;;;;;;;;5012598;28;20116;-65
2020/12/05 09:44:58;;;;;;;25.73;16.85;;;;;;;;;;5010104;28;20057;-69
2020/12/05 09:47:24;;;;;;;29.23;17.83;;;;;;;;;;5011669;28;20440;-63
2020/12/05 09:49:51;;;;;;;25.42;16.00;;;;;;;;;;5010338;28;20026;-62
2020/12/05 09:52:17;;;;;;;18.83;12.52;;;;;;;;;;5007607;28;20481;-66
2020/12/05 09:54:43;;;;;;;16.15;11.52;;;;;;;;;;5007893;28;20389;-62
2020/12/05 09:57:09;;;;;;;18.70;12.38;;;;;;;;;;5012406;28;20104;-62
2020/12/05 09:59:35;;;;;;;16.25;11.75;;;;;;;;;;5012339;28;20017;-67
2020/12/05 10:02:05;;;;;;;18.38;11.75;;;;;;;;;;5003920;28;20034;-64
2020/12/05 10:04:31;;;;;;;15.82;11.38;;;;;;;;;;5009478;28;20129;-67
2020/12/05 10:06:57;;;;;;;14.43;10.13;;;;;;;;;;5012489;28;20058;-61
2020/12/05 10:09:23;;;;;;;13.43;9.18;;;;;;;;;;5011955;28;20026;-62
2020/12/05 10:11:49;;;;;;;13.85;9.43;;;;;;;;;;5010713;28;20039;-61
2020/12/05 10:14:15;;;;;;;12.93;9.65;;;;;;;;;;5004189;28;20524;-63
2020/12/05 10:16:41;;;;;;;12.10;8.82;;;;;;;;;;5011631;28;20095;-63
2020/12/05 10:19:07;;;;;;;18.88;11.68;;;;;;;;;;5011293;28;20026;-60
2020/12/05 10:21:33;;;;;;;15.43;9.93;;;;;;;;;;5012324;28;20077;-61
2020/12/05 10:23:59;;;;;;;15.30;9.18;;;;;;;;;;5012031;28;20024;-61
2020/12/05 10:26:25;;;;;;;10.68;7.70;;;;;;;;;;5012136;28;20108;-61
2020/12/05 10:28:52;;;;;;;12.48;7.20;;;;;;;;;;5008166;28;20478;-64
2020/12/05 10:31:18;;;;;;;10.93;6.55;;;;;;;;;;5012015;28;20034;-68
2020/12/05 10:33:44;;;;;;;10.13;7.18;;;;;;;;;;5011430;28;20065;-66
2020/12/05 10:36:10;;;;;;;8.38;6.03;;;;;;;;;;5011739;28;20033;-65
2020/12/05 10:38:36;;;;;;;9.75;7.03;;;;;;;;;;5012022;28;20075;-65
2020/12/05 10:41:02;;;;;;;10.70;5.70;;;;;;;;;;5011955;28;20076;-65
2020/12/05 10:43:28;;;;;;;11.50;7.90;;;;;;;;;;5011734;28;20108;-67
2020/12/05 10:45:54;;;;;;;9.00;6.65;;;;;;;;;;5014998;28;20129;-64
2020/12/05 10:48:20;;;;;;;9.63;6.32;;;;;;;;;;5014606;28;20041;-61
2020/12/05 10:50:46;;;;;;;9.50;6.25;;;;;;;;;;5015672;28;20033;-66
2020/12/05 10:53:12;;;;;;;8.38;5.78;;;;;;;;;;5015284;28;20112;-66
2020/12/05 10:55:38;;;;;;;8.35;6.00;;;;;;;;;;5015069;28;20022;-64
2020/12/05 10:58:04;;;;;;;8.63;5.88;;;;;;;;;;5014900;28;20121;-61
2020/12/05 11:00:30;;;;;;;9.13;6.30;;;;;;;;;;5014973;28;20021;-61
2020/12/05 11:02:56;;;;;;;13.25;8.98;;;;;;;;;;5014848;28;20029;-65
2020/12/05 11:05:22;;;;;;;8.75;6.65;;;;;;;;;;5011805;28;20514;-63
2020/12/05 11:07:48;;;;;;;9.23;6.90;;;;;;;;;;5014478;28;20046;-66
2020/12/05 11:10:15;;;;;;;8.30;6.75;;;;;;;;;;5014467;28;20022;-67
2020/12/05 11:12:41;;;;;;;9.68;7.00;;;;;;;;;;5014755;28;20410;-66
2020/12/05 11:15:07;;;;;;;8.45;6.25;;;;;;;;;;5015180;28;20026;-65
2020/12/05 11:17:33;;;;;;;9.15;6.53;;;;;;;;;;5010848;28;20037;-69
2020/12/05 11:19:59;;;;;;;9.45;7.57;;;;;;;;;;5014652;28;20018;-67
2020/12/05 11:22:25;;;;;;;9.95;7.38;;;;;;;;;;5014170;28;20030;-71
2020/12/05 11:24:51;;;;;;;14.55;9.63;;;;;;;;;;5013284;28;20105;-68
2020/12/05 11:27:17;;;;;;;9.55;6.93;;;;;;;;;;5014105;28;20521;-70
2020/12/05 11:29:43;;;;;;;10.13;6.35;;;;;;;;;;5014004;28;20053;-71
2020/12/05 11:32:09;;;;;;;9.48;6.70;;;;;;;;;;5014274;28;20057;-61
2020/12/05 11:34:35;;;;;;;10.43;7.05;;;;;;;;;;5014457;28;20033;-64
2020/12/05 11:37:01;;;;;;;9.35;7.00;;;;;;;;;;5014465;28;20030;-71
2020/12/05 11:39:27;;;;;;;10.95;7.35;;;;;;;;;;5014271;28;20097;-61
2020/12/05 11:41:53;;;;;;;10.40;6.75;;;;;;;;;;5014503;28;20022;-65
2020/12/05 11:44:19;;;;;;;11.25;7.53;;;;;;;;;;5012257;28;20489;-66
2020/12/05 11:46:45;;;;;;;9.85;7.60;;;;;;;;;;5011714;28;20061;-66
2020/12/05 11:49:11;;;;;;;9.75;6.80;;;;;;;;;;5006633;28;20438;-61
2020/12/05 11:51:38;;;;;;;11.85;8.18;;;;;;;;;;5013762;28;20803;-61
2020/12/05 11:54:04;;;;;;;12.25;7.47;;;;;;;;;;5013839;28;20044;-63
2020/12/05 11:56:30;;;;;;;12.13;8.57;;;;;;;;;;5012794;28;20506;-62
2020/12/05 11:58:56;;;;;;;10.70;7.75;;;;;;;;;;5003805;28;20020;-61
2020/12/05 12:01:22;;;;;;;8.25;6.65;;;;;;;;;;5008128;28;20081;-59
2020/12/05 12:03:48;;;;;;;9.65;6.82;;;;;;;;;;5011093;28;20121;-61
2020/12/05 12:06:15;;;;;;;9.63;7.00;;;;;;;;;;5010649;28;20065;-63
2020/12/05 12:08:42;;;;;;;13.50;7.82;;;;;;;;;;5013054;28;20034;-61
2020/12/05 12:11:08;;;;;;;11.73;8.10;;;;;;;;;;5012966;28;20029;-64
2020/12/05 12:13:34;;;;;;;16.50;9.20;;;;;;;;;;5013269;28;20018;-64
2020/12/05 12:16:00;;;;;;;13.40;9.90;;;;;;;;;;5012157;28;20029;-65
2020/12/05 12:18:26;;;;;;;10.10;6.70;;;;;;;;;;5012275;28;20022;-62
2020/12/05 12:20:52;;;;;;;8.88;6.18;;;;;;;;;;5010451;28;20497;-64
2020/12/05 12:23:18;;;;;;;14.02;8.27;;;;;;;;;;5012990;28;20037;-63
2020/12/05 12:25:44;;;;;;;13.65;8.68;;;;;;;;;;5012407;28;20026;-66
2020/12/05 12:28:10;;;;;;;13.98;8.70;;;;;;;;;;5011887;28;20034;-61
2020/12/05 12:30:36;;;;;;;10.18;6.93;;;;;;;;;;5012250;28;20014;-62
2020/12/05 12:33:02;;;;;;;11.27;6.88;;;;;;;;;;5012762;28;20065;-61
2020/12/05 12:35:28;;;;;;;12.70;8.77;;;;;;;;;;5012157;28;20382;-62
2020/12/05 12:37:54;;;;;;;12.98;6.35;;;;;;;;;;5012273;28;20401;-61
2020/12/05 12:40:20;;;;;;;9.95;6.55;;;;;;;;;;5012240;28;20017;-59
2020/12/05 12:42:46;;;;;;;12.98;8.93;;;;;;;;;;5011701;28;20362;-63
2020/12/05 12:45:13;;;;;;;14.32;9.00;;;;;;;;;;5012548;28;20223;-61
2020/12/05 12:47:44;;;;;;;10.93;8.15;;;;;;;;;;5010575;28;20533;-61
2020/12/05 12:50:10;;;;;;;10.98;7.30;;;;;;;;;;5011994;28;20121;-64
2020/12/05 12:52:36;;;;;;;11.70;8.30;;;;;;;;;;5012682;28;20049;-64
2020/12/05 12:55:03;;;;;;;15.13;10.70;;;;;;;;;;5012573;28;20022;-63
2020/12/05 12:57:31;;;;;;;17.60;13.40;;;;;;;;;;5012710;28;20026;-61
2020/12/05 12:59:57;;;;;;;35.00;23.08;;;;;;;;;;5012283;28;20026;-63
2020/12/05 13:02:23;;;;;;;27.42;17.55;;;;;;;;;;5011756;28;20021;-62
2020/12/05 13:04:49;;;;;;;12.35;7.22;;;;;;;;;;5012269;28;20057;-62
2020/12/05 13:07:15;;;;;;;16.00;9.02;;;;;;;;;;5011830;28;20029;-59
2020/12/05 13:09:41;;;;;;;15.23;10.45;;;;;;;;;;5012161;28;20072;-63
2020/12/05 13:12:07;;;;;;;16.02;9.00;;;;;;;;;;5013004;28;20029;-62
2020/12/05 13:14:33;;;;;;;9.07;6.70;;;;;;;;;;5010837;28;20061;-64
2020/12/05 13:17:00;;;;;;;12.90;8.63;;;;;;;;;;5011237;28;20018;-61
2020/12/05 13:19:26;;;;;;;15.27;9.10;;;;;;;;;;5009856;28;20061;-62
2020/12/05 13:21:55;;;;;;;15.98;10.35;;;;;;;;;;5012684;28;20024;-63
2020/12/05 13:24:21;;;;;;;18.45;11.25;;;;;;;;;;5012390;28;20030;-57
2020/12/05 13:26:49;;;;;;;13.80;8.40;;;;;;;;;;5012266;28;20026;-64
2020/12/05 13:29:15;;;;;;;39.22;23.05;;;;;;;;;;5012300;28;20038;-62
2020/12/05 13:31:41;;;;;;;18.20;10.73;;;;;;;;;;5011398;28;20053;-62
2020/12/05 13:34:07;;;;;;;14.93;9.13;;;;;;;;;;5012348;28;20041;-61
2020/12/05 13:36:33;;;;;;;17.15;10.75;;;;;;;;;;5011431;28;20064;-63
2020/12/05 13:38:59;;;;;;;21.48;14.23;;;;;;;;;;5011303;28;20029;-64
2020/12/05 13:41:27;;;;;;;26.58;16.05;;;;;;;;;;5008214;28;20026;-60
2020/12/05 13:43:59;;;;;;;9.18;6.28;;;;;;;;;;5011905;28;20034;-56
2020/12/05 13:46:25;;;;;;;19.20;11.40;;;;;;;;;;5010824;28;20034;-57
2020/12/05 13:48:51;;;;;;;19.10;12.55;;;;;;;;;;5010365;28;20041;-56
2020/12/05 13:55:01;;;;;;;24.52;17.67;;;;;;;;;;5052260;28;20454;-55
2020/12/05 13:57:27;;;;;;;28.77;21.85;;;;;;;;;;5051396;28;20684;-54
2020/12/05 13:59:53;;;;;;;21.05;16.10;;;;;;;;;;5063356;28;20030;-55
2020/12/05 14:02:19;;;;;;;20.80;13.38;;;;;;;;;;5050721;28;20075;-57
2020/12/05 14:04:45;;;;;;;40.63;26.88;;;;;;;;;;5057487;28;20024;-58
2020/12/05 14:07:11;;;;;;;63.10;42.03;;;;;;;;;;5049007;28;20033;-55
2020/12/05 14:09:37;;;;;;;17.83;11.43;;;;;;;;;;5049342;28;20043;-59
2020/12/05 14:12:03;;;;;;;19.20;12.82;;;;;;;;;;5049161;28;20083;-58
2020/12/05 14:14:29;;;;;;;23.67;17.20;;;;;;;;;;5051298;28;20061;-53
2020/12/05 14:16:55;;;;;;;58.03;42.83;;;;;;;;;;5061063;28;20076;-54
2020/12/05 14:19:21;;;;;;;101.38;68.35;;;;;;;;;;5065020;28;20370;-60
2020/12/05 14:21:48;;;;;;;20.85;14.38;;;;;;;;;;5060796;28;20013;-57
2020/12/05 14:24:14;;;;;;;34.95;21.33;;;;;;;;;;5055629;28;20029;-58